South Channel Island, Victoria

1:58 AM AEST on August 03, 2015 (GMT +1000)
Rosebud West | | Change Station
CLOSE
Current Station
Personal Weather Station
Location: Rosebud West, VICTORIA
Elevation: 23 ft
Nearby Weather Stations

Elev 23 ft 38.37 °S, 144.88 °E | Updated 14 seconds ago

Overcast
Overcast
50.2 °F
Feels Like 50.2 °F
N
7.3
Wind Variable Wind from WNW
Gusts 12.5 mph

Today
High -- | Low -- °F
--% Chance of Precip.
Yesterday
High -- | Low -- °F
Precip. -- in
7:20 AM 5:33 PM
Waning Gibbous, 93% visible
Pressure 29.86 in
Visibility 6.2 miles
Clouds Mostly Cloudy 3000 ft
Overcast 8300 ft
Dew Point 42 °F
Humidity 72%
Rainfall 0.00 in
Snow Depth Not available.
UV 0.0 out of 12
Pollen Not available.
Air Quality Not available.
Flu Activity Not available.
METAR YMAV 021530Z AUTO 31016KT 9999 // BKN030 OVC083 10/05 Q1011

More Conditions Fewer Conditions

Pressure 29.86 in
Visibility 6.2 miles
Clouds Mostly Cloudy 3000 ft
Overcast 8300 ft
Dew Point 42 °F
Humidity 72%
Rainfall 0.00 in
Snow Depth Not available.
UV 0.0 out of 12
Pollen Not available.
Air Quality Not available.
Flu Activity Not available.
METAR YMAV 021530Z AUTO 31016KT 9999 // BKN030 OVC083 10/05 Q1011

More Conditions Fewer Conditions

10-Day Weather Forecast

×

Almanac

Astronomy

Aug. 03, 2015 Rise Set
Actual Time
Civil Twilight
Nautical Twilight
Astronomical Twilight
Moon
Length of Visible Light
Length of Day
Tomorrow will be .
, % of the Moon is Illuminated

Today's Extremes

Country Highs Country Lows

Community

WunderPhotos

Upload Photos

1,843,287 photos uploaded!

WunderBlogs® & News

Nearby

Air Quality

  Air Quality AQ Index Pollutant
Not available.

Snow Depth

Station Depth Elevation

Earthquake Activity

City Distance Mag. Time & Date
Minimum magnitude displayed is 2.5.

Coastal Water Temperatures

Place Temperature

Stations

Nearby Weather Stations

Station Location Temp. Windchill Dew Point Humidity Wind Precip. Elev Updated Type